createdAt,value
2018-05-21T00:01:13.622Z,6.17
2018-05-21T00:03:41.499Z,5.67
2018-05-21T00:06:09.237Z,6.83
2018-05-21T00:08:37.037Z,8.73
2018-05-21T00:11:04.806Z,8.60
2018-05-21T00:13:32.683Z,6.13
2018-05-21T00:16:00.350Z,5.20
2018-05-21T00:18:28.120Z,5.93
2018-05-21T00:20:55.988Z,5.67
2018-05-21T00:23:23.751Z,4.10
2018-05-21T00:25:51.520Z,5.90
2018-05-21T00:28:19.293Z,8.00
2018-05-21T00:30:47.261Z,5.20
2018-05-21T00:33:15.142Z,5.47
2018-05-21T00:35:42.906Z,6.83
2018-05-21T00:38:10.574Z,5.93
2018-05-21T00:40:38.237Z,6.23
2018-05-21T00:43:05.996Z,8.10
2018-05-21T00:45:33.779Z,5.67
2018-05-21T00:48:01.443Z,5.37
2018-05-21T00:50:29.238Z,7.17
2018-05-21T00:52:56.979Z,5.50
2018-05-21T00:55:37.236Z,5.70
2018-05-21T00:58:05.998Z,7.43
2018-05-21T01:00:33.802Z,6.93
2018-05-21T01:03:01.676Z,7.30
2018-05-21T01:05:29.561Z,9.37
2018-05-21T01:07:57.306Z,5.30
2018-05-21T01:10:25.199Z,4.70
2018-05-21T01:12:53.045Z,5.77
2018-05-21T01:15:20.895Z,8.17
2018-05-21T01:17:48.689Z,4.63
2018-05-21T01:20:17.380Z,5.73
2018-05-21T01:22:45.151Z,5.17
2018-05-21T01:25:12.918Z,10.80
2018-05-21T01:27:40.689Z,4.77
2018-05-21T01:30:08.660Z,7.37
2018-05-21T01:32:36.436Z,5.67
2018-05-21T01:35:04.760Z,8.23
2018-05-21T01:37:32.398Z,9.30
2018-05-21T01:40:00.224Z,8.67
2018-05-21T01:42:28.027Z,9.37
2018-05-21T01:44:55.885Z,6.47
2018-05-21T01:47:23.649Z,7.20
2018-05-21T01:49:51.426Z,8.67
2018-05-21T01:52:19.300Z,6.87
2018-05-21T01:54:47.173Z,7.87
2018-05-21T01:57:14.943Z,8.50
2018-05-21T01:59:42.711Z,9.97
2018-05-21T02:02:10.536Z,10.20
2018-05-21T02:04:38.853Z,8.87
2018-05-21T02:07:06.601Z,8.73
2018-05-21T02:09:34.286Z,7.47
2018-05-21T02:12:01.988Z,10.43
2018-05-21T02:14:29.727Z,8.37
2018-05-21T02:16:57.600Z,11.27
2018-05-21T02:19:25.879Z,10.13
2018-05-21T02:21:53.748Z,11.70
2018-05-21T02:24:21.639Z,8.40
2018-05-21T02:26:49.280Z,8.57
2018-05-21T02:29:17.160Z,10.67
2018-05-21T02:31:45.032Z,8.13
2018-05-21T02:34:12.807Z,9.17
2018-05-21T02:36:40.565Z,9.80
2018-05-21T02:39:08.448Z,11.73
2018-05-21T02:41:36.306Z,12.43
2018-05-21T02:44:04.148Z,7.37
2018-05-21T02:46:32.056Z,9.20
2018-05-21T02:48:59.720Z,10.13
2018-05-21T02:51:27.386Z,8.30
2018-05-21T02:53:55.210Z,9.67
2018-05-21T02:56:22.920Z,8.17
2018-05-21T02:58:50.753Z,12.03
2018-05-21T03:01:18.566Z,11.87
2018-05-21T03:03:46.285Z,8.53
2018-05-21T03:06:14.109Z,12.03
2018-05-21T03:08:41.852Z,10.47
2018-05-21T03:11:09.654Z,9.13
2018-05-21T03:13:37.304Z,7.60
2018-05-21T03:16:05.077Z,10.00
2018-05-21T03:18:32.851Z,9.73
2018-05-21T03:21:00.547Z,7.20
2018-05-21T03:23:28.267Z,10.07
2018-05-21T03:25:56.152Z,10.63
2018-05-21T03:28:24.033Z,12.30
2018-05-21T03:30:52.713Z,8.50
2018-05-21T03:33:22.984Z,13.80
2018-05-21T03:35:51.295Z,7.00
2018-05-21T03:38:19.197Z,7.27
2018-05-21T03:40:47.066Z,6.87
2018-05-21T03:43:14.736Z,9.93
2018-05-21T03:45:42.504Z,9.33
2018-05-21T03:48:10.169Z,8.13
2018-05-21T03:50:38.042Z,7.30
2018-05-21T03:53:05.909Z,7.67
2018-05-21T03:55:33.781Z,10.03
2018-05-21T03:58:01.451Z,7.50
2018-05-21T04:00:40.981Z,6.77
2018-05-21T04:03:20.621Z,8.67
2018-05-21T04:05:48.395Z,11.13
2018-05-21T04:08:16.055Z,7.27
2018-05-21T04:10:43.831Z,8.73
2018-05-21T04:13:11.694Z,7.97
2018-05-21T04:15:39.477Z,8.10
2018-05-21T04:18:07.300Z,7.87
2018-05-21T04:20:35.207Z,10.97
2018-05-21T04:23:02.979Z,10.07
2018-05-21T04:25:30.723Z,11.50
2018-05-21T04:27:58.514Z,9.47
2018-05-21T04:30:26.280Z,9.93
2018-05-21T04:32:54.053Z,9.93
2018-05-21T04:35:22.074Z,13.37
2018-05-21T04:37:49.791Z,13.03
2018-05-21T04:40:17.465Z,10.47
2018-05-21T04:42:45.358Z,10.13
2018-05-21T04:45:13.107Z,10.67
2018-05-21T04:47:40.977Z,9.37
2018-05-21T04:50:08.949Z,9.00
2018-05-21T04:52:36.599Z,12.30
2018-05-21T04:55:04.491Z,11.20
2018-05-21T04:57:32.433Z,12.90
2018-05-21T05:00:00.152Z,15.47
2018-05-21T05:02:27.992Z,13.53
2018-05-21T05:04:55.870Z,18.00
2018-05-21T05:07:24.552Z,16.70
2018-05-21T05:09:52.435Z,17.63
2018-05-21T05:12:20.133Z,15.87
2018-05-21T05:14:48.294Z,14.00
2018-05-21T05:17:16.151Z,15.87
2018-05-21T05:19:43.965Z,16.10
2018-05-21T05:22:11.778Z,13.03
2018-05-21T05:24:39.429Z,15.23
2018-05-21T05:27:07.321Z,11.60
2018-05-21T05:29:35.137Z,15.27
2018-05-21T05:32:02.963Z,17.97
2018-05-21T05:34:30.743Z,12.57
2018-05-21T05:36:58.404Z,12.43
2018-05-21T05:39:26.140Z,10.20
2018-05-21T05:41:53.924Z,14.40
2018-05-21T05:44:21.703Z,12.77
2018-05-21T05:46:49.574Z,13.23
2018-05-21T05:49:17.446Z,8.33
2018-05-21T05:51:45.228Z,14.27
2018-05-21T05:54:12.987Z,10.13
2018-05-21T05:56:40.862Z,8.53
2018-05-21T05:59:08.521Z,8.20
2018-05-21T06:01:36.312Z,7.70
2018-05-21T06:04:04.262Z,11.53
2018-05-21T06:06:32.099Z,8.67
2018-05-21T06:08:59.921Z,8.07
2018-05-21T06:11:28.303Z,5.83
2018-05-21T06:13:56.161Z,9.93
2018-05-21T06:16:23.928Z,6.30
2018-05-21T06:18:51.712Z,9.10
2018-05-21T06:21:19.567Z,6.13
2018-05-21T06:23:47.437Z,6.73
2018-05-21T06:26:15.231Z,6.93
2018-05-21T06:41:49.914Z,5.60
2018-05-21T06:44:17.686Z,9.00
2018-05-21T06:46:45.495Z,6.77
2018-05-21T06:49:13.331Z,7.10
2018-05-21T06:51:40.988Z,6.27
2018-05-21T06:54:08.678Z,7.13
2018-05-21T06:56:37.009Z,7.63
2018-05-21T06:59:04.911Z,7.20
2018-05-21T07:01:32.573Z,7.93
2018-05-21T07:04:00.370Z,6.27
2018-05-21T07:06:28.224Z,6.27
2018-05-21T07:08:55.960Z,9.33
2018-05-21T07:11:23.713Z,7.10
2018-05-21T07:13:51.524Z,5.60
2018-05-21T07:16:19.195Z,9.52
2018-05-21T07:18:47.065Z,6.53
2018-05-21T07:21:14.859Z,6.00
2018-05-21T07:23:43.334Z,5.10
2018-05-21T07:26:12.227Z,6.93
2018-05-21T07:28:39.882Z,6.23
2018-05-21T07:31:07.742Z,7.73
2018-05-21T07:33:35.523Z,5.97
2018-05-21T07:36:03.275Z,13.83
2018-05-21T07:38:31.164Z,5.73
2018-05-21T07:40:59.138Z,6.83
2018-05-21T07:43:26.927Z,5.53
2018-05-21T07:45:54.775Z,6.87
2018-05-21T07:48:22.652Z,5.13
2018-05-21T07:50:50.418Z,4.70
2018-05-21T07:53:18.197Z,7.00
2018-05-21T07:55:45.951Z,9.00
2018-05-21T07:58:13.629Z,6.47
2018-05-21T08:00:41.272Z,8.30
2018-05-21T08:03:09.153Z,6.00
2018-05-21T08:05:37.523Z,5.93
2018-05-21T08:08:05.369Z,6.00
2018-05-21T08:10:33.286Z,5.30
2018-05-21T08:13:01.262Z,9.90
2018-05-21T08:15:29.101Z,7.87
2018-05-21T08:17:56.887Z,5.77
2018-05-21T08:20:24.671Z,5.07
2018-05-21T08:22:52.425Z,4.87
2018-05-21T08:25:20.312Z,7.00
2018-05-21T08:27:48.293Z,6.80
2018-05-21T08:30:16.053Z,6.53
2018-05-21T08:32:43.924Z,7.57
2018-05-21T08:35:11.994Z,5.40
2018-05-21T08:37:39.797Z,2.70
2018-05-21T08:40:07.637Z,5.50
2018-05-21T08:42:35.657Z,6.27
2018-05-21T08:45:03.587Z,8.80
2018-05-21T08:47:31.758Z,7.43
2018-05-21T08:49:59.783Z,4.43
2018-05-21T08:52:27.745Z,4.72
2018-05-21T08:54:55.578Z,6.60
2018-05-21T08:57:23.503Z,4.33
2018-05-21T08:59:51.214Z,6.57
2018-05-21T09:02:18.991Z,4.00
2018-05-21T09:04:46.734Z,4.43
2018-05-21T09:07:14.423Z,5.13
2018-05-21T09:09:42.293Z,5.73
2018-05-21T09:12:10.166Z,7.37
2018-05-21T09:14:38.047Z,4.20
2018-05-21T09:17:06.115Z,8.50
2018-05-21T09:19:33.806Z,6.30
2018-05-21T09:22:01.481Z,4.80
2018-05-21T09:24:29.421Z,4.67
2018-05-21T09:26:57.389Z,7.33
2018-05-21T09:29:25.063Z,6.33
2018-05-21T09:31:52.861Z,4.13
2018-05-21T09:34:20.757Z,5.47
2018-05-21T09:36:48.465Z,5.40
2018-05-21T09:39:16.213Z,7.30
2018-05-21T09:41:44.925Z,2.90
2018-05-21T09:44:13.224Z,3.53
2018-05-21T09:46:41.081Z,3.13
2018-05-21T09:49:08.859Z,4.50
2018-05-21T09:51:36.928Z,4.30
2018-05-21T09:54:04.903Z,4.07
2018-05-21T09:56:33.593Z,3.80
2018-05-21T09:59:01.461Z,5.63
2018-05-21T10:01:29.336Z,6.07
2018-05-21T10:03:57.197Z,4.13
2018-05-21T10:06:24.876Z,5.60
2018-05-21T10:08:52.792Z,9.37
2018-05-21T10:11:20.607Z,4.23
2018-05-21T10:13:48.478Z,7.10
2018-05-21T10:16:16.248Z,4.70
2018-05-21T10:18:44.847Z,3.63
2018-05-21T10:21:12.712Z,5.07
2018-05-21T10:23:40.649Z,4.83
2018-05-21T10:26:08.641Z,3.03
2018-05-21T10:28:37.075Z,5.20
2018-05-21T10:31:05.015Z,3.33
2018-05-21T10:33:32.786Z,7.00
2018-05-21T10:36:00.558Z,6.73
2018-05-21T10:38:28.528Z,7.20
2018-05-21T10:40:56.394Z,4.80
2018-05-21T10:43:24.066Z,3.40
2018-05-21T10:45:51.944Z,5.20
2018-05-21T10:48:19.815Z,6.03
2018-05-21T10:50:47.584Z,9.80
2018-05-21T10:53:15.349Z,4.00
2018-05-21T10:55:43.135Z,5.97
2018-05-21T10:58:10.983Z,5.97
2018-05-21T11:00:38.962Z,7.13
2018-05-21T11:03:06.937Z,3.33
2018-05-21T11:05:34.809Z,4.70
2018-05-21T11:08:02.635Z,5.73
2018-05-21T11:10:30.388Z,4.13
2018-05-21T11:12:58.215Z,4.23
2018-05-21T11:15:25.993Z,29.87
2018-05-21T11:17:54.895Z,53.53
2018-05-21T11:20:24.606Z,94.53
2018-05-21T11:22:52.384Z,38.23
2018-05-21T11:25:20.128Z,72.63
2018-05-21T11:27:48.041Z,48.47
2018-05-21T11:30:15.796Z,16.67
2018-05-21T11:32:43.637Z,21.57
2018-05-21T11:35:11.450Z,13.67
2018-05-21T11:37:39.276Z,12.02
2018-05-21T11:40:07.044Z,13.17
2018-05-21T11:42:34.807Z,8.90
2018-05-21T11:45:02.691Z,5.83
2018-05-21T11:47:30.441Z,8.27
2018-05-21T11:49:58.231Z,30.97
2018-05-21T11:52:26.214Z,4.30
2018-05-21T11:54:53.985Z,6.80
2018-05-21T11:57:21.832Z,9.20
2018-05-21T11:59:49.596Z,8.13
2018-05-21T12:02:17.375Z,6.43
2018-05-21T12:04:45.246Z,4.33
2018-05-21T12:07:13.186Z,5.55
2018-05-21T12:09:41.089Z,7.68
2018-05-21T12:12:08.921Z,7.37
2018-05-21T12:14:36.827Z,9.40
2018-05-21T12:17:04.600Z,4.97
2018-05-21T12:19:32.374Z,5.03
2018-05-21T12:22:00.439Z,5.03
2018-05-21T12:24:28.312Z,6.32
2018-05-21T12:26:56.206Z,4.07
2018-05-21T12:29:24.118Z,5.53
2018-05-21T12:31:51.933Z,5.50
2018-05-21T12:34:19.842Z,4.28
2018-05-21T12:36:47.785Z,5.25
2018-05-21T12:39:15.647Z,4.30
2018-05-21T12:41:43.476Z,7.37
2018-05-21T12:44:11.352Z,6.70
2018-05-21T12:46:39.162Z,3.65
2018-05-21T12:49:07.135Z,7.05
2018-05-21T12:51:35.004Z,6.40
2018-05-21T12:54:02.742Z,6.60
2018-05-21T12:56:30.742Z,4.20
2018-05-21T12:58:58.626Z,3.47
2018-05-21T13:01:26.499Z,4.70
2018-05-21T13:03:54.257Z,4.75
2018-05-21T13:06:22.024Z,4.77
2018-05-21T13:08:49.810Z,20.13
2018-05-21T13:11:17.573Z,12.37
2018-05-21T13:13:45.437Z,5.63
2018-05-21T13:16:13.101Z,4.17
2018-05-21T13:18:40.873Z,7.10
2018-05-21T13:21:08.739Z,6.93
2018-05-21T13:23:36.614Z,3.63
2018-05-21T13:26:04.484Z,4.30
2018-05-21T13:28:33.075Z,4.33
2018-05-21T13:31:01.043Z,5.10
2018-05-21T13:33:28.917Z,6.07
2018-05-21T13:35:56.784Z,7.93
2018-05-21T13:38:24.575Z,6.63
2018-05-21T13:40:52.426Z,5.97
2018-05-21T13:43:20.404Z,4.70
2018-05-21T13:45:47.959Z,5.93
2018-05-21T13:48:15.845Z,8.00
2018-05-21T13:50:43.651Z,3.27
2018-05-21T13:53:11.353Z,4.77
2018-05-21T13:55:39.142Z,4.50
2018-05-21T13:58:07.118Z,4.30
2018-05-21T14:00:34.885Z,5.73
2018-05-21T14:03:02.756Z,4.25
2018-05-21T14:05:30.474Z,6.15
2018-05-21T14:07:58.301Z,9.57
2018-05-21T14:10:26.170Z,13.82
2018-05-21T14:12:54.040Z,4.68
2018-05-21T14:15:21.920Z,8.23
2018-05-21T14:17:49.860Z,4.75
2018-05-21T14:20:17.757Z,7.87
2018-05-21T14:22:45.645Z,7.47
2018-05-21T14:25:13.435Z,3.07
2018-05-21T14:27:41.364Z,2.58
2018-05-21T14:30:09.130Z,9.03
2018-05-21T14:32:36.915Z,5.32
2018-05-21T14:35:04.796Z,5.87
2018-05-21T14:37:32.440Z,3.25
2018-05-21T14:40:00.212Z,4.30
2018-05-21T14:42:28.101Z,4.25
2018-05-21T14:44:55.853Z,2.65
2018-05-21T14:47:23.635Z,6.65
2018-05-21T14:49:51.391Z,4.37
2018-05-21T14:52:19.161Z,3.58
2018-05-21T14:54:46.938Z,5.53
2018-05-21T14:57:14.723Z,3.22
2018-05-21T14:59:42.564Z,3.75
2018-05-21T15:02:10.403Z,2.97
2018-05-21T15:04:38.110Z,3.37
2018-05-21T15:07:05.940Z,5.07
2018-05-21T15:09:33.873Z,4.05
2018-05-21T15:12:01.658Z,3.65
2018-05-21T15:14:29.447Z,3.75
2018-05-21T15:16:57.287Z,3.50
2018-05-21T15:19:25.184Z,4.30
2018-05-21T15:21:52.911Z,4.72
2018-05-21T15:24:20.715Z,2.50
2018-05-21T15:26:48.540Z,5.60
2018-05-21T15:29:17.638Z,5.60
2018-05-21T15:31:46.327Z,4.62
2018-05-21T15:34:14.295Z,5.50
2018-05-21T15:36:42.380Z,3.08
2018-05-21T15:39:10.250Z,4.82
2018-05-21T15:41:38.018Z,5.20
2018-05-21T15:44:05.661Z,6.10
2018-05-21T15:46:33.552Z,5.25
2018-05-21T15:49:01.390Z,3.30
2018-05-21T15:51:29.135Z,3.25
2018-05-21T15:53:56.903Z,3.58
2018-05-21T15:56:24.635Z,3.30
2018-05-21T15:58:52.393Z,6.40
2018-05-21T16:01:20.067Z,6.10
2018-05-21T16:03:47.944Z,3.15
2018-05-21T16:06:15.810Z,6.50
2018-05-21T16:08:43.661Z,5.62
2018-05-21T16:11:11.459Z,4.40
2018-05-21T16:13:39.220Z,6.12
2018-05-21T16:16:06.982Z,4.87
2018-05-21T16:18:34.850Z,4.10
2018-05-21T16:21:02.742Z,4.32
2018-05-21T16:23:30.495Z,4.82
2018-05-21T16:25:59.181Z,4.32
2018-05-21T16:28:26.961Z,6.30
2018-05-21T16:30:54.828Z,4.70
2018-05-21T16:33:22.799Z,3.92
2018-05-21T16:35:50.675Z,3.95
2018-05-21T16:38:18.439Z,3.67
2018-05-21T16:40:47.309Z,3.50
2018-05-21T16:43:15.098Z,4.90
2018-05-21T16:45:42.968Z,5.05
2018-05-21T16:48:10.840Z,4.22
2018-05-21T16:50:38.525Z,5.40
2018-05-21T16:53:07.409Z,7.32
2018-05-21T16:55:35.434Z,4.28
2018-05-21T16:58:03.253Z,4.78
2018-05-21T17:00:31.091Z,4.43
2018-05-21T17:02:58.807Z,5.60
2018-05-21T17:05:26.664Z,5.47
2018-05-21T17:07:54.430Z,3.75
2018-05-21T17:10:22.206Z,3.37
2018-05-21T17:12:49.970Z,3.80
2018-05-21T17:15:17.742Z,4.40
2018-05-21T17:35:10.836Z,4.13
2018-05-21T17:37:38.710Z,6.03
2018-05-21T17:40:06.586Z,6.80
2018-05-21T17:42:34.561Z,4.67
2018-05-21T17:45:02.534Z,3.87
2018-05-21T17:47:30.801Z,6.00
2018-05-21T17:49:58.684Z,4.20
2018-05-21T17:52:26.553Z,5.63
2018-05-21T17:54:55.171Z,9.73
2018-05-21T17:57:22.902Z,5.70
2018-05-21T17:59:50.647Z,6.90
2018-05-21T18:02:18.338Z,3.97
2018-05-21T18:04:46.221Z,8.00
2018-05-21T18:07:14.086Z,4.67
2018-05-21T18:09:42.058Z,6.00
2018-05-21T18:12:09.930Z,6.70
2018-05-21T18:14:37.893Z,4.40
2018-05-21T18:17:07.828Z,8.93
2018-05-21T18:19:35.657Z,10.43
2018-05-21T18:22:03.431Z,5.73
2018-05-21T18:24:31.185Z,11.50
2018-05-21T18:26:59.154Z,6.83
2018-05-21T18:29:26.979Z,7.43
2018-05-21T18:31:54.844Z,11.30
2018-05-21T18:34:22.718Z,8.50
2018-05-21T18:36:50.376Z,6.83
2018-05-21T18:39:18.193Z,8.87
2018-05-21T18:41:46.025Z,7.47
2018-05-21T18:44:13.912Z,10.03
2018-05-21T18:46:43.304Z,12.27
2018-05-21T18:49:11.106Z,11.87
2018-05-21T18:51:38.945Z,9.13
2018-05-21T18:54:06.815Z,9.23
2018-05-21T18:56:34.576Z,7.20
2018-05-21T18:59:02.446Z,5.97
2018-05-21T19:01:30.433Z,5.30
2018-05-21T19:03:58.189Z,6.67
2018-05-21T19:06:25.859Z,7.33
2018-05-21T19:08:54.347Z,6.73
2018-05-21T19:11:22.111Z,4.80
2018-05-21T19:13:49.800Z,9.27
2018-05-21T19:16:17.654Z,12.07
2018-05-21T19:18:45.522Z,6.73
2018-05-21T19:21:13.391Z,4.87
2018-05-21T19:23:41.166Z,5.40
2018-05-21T19:26:09.054Z,6.50
2018-05-21T19:28:36.825Z,13.50
2018-05-21T19:31:04.577Z,7.60
2018-05-21T19:33:32.346Z,6.03
2018-05-21T19:36:01.038Z,9.07
2018-05-21T19:38:28.900Z,7.20
2018-05-21T19:40:56.778Z,10.37
2018-05-21T19:43:24.540Z,14.30
2018-05-21T19:45:52.382Z,12.17
2018-05-21T19:48:20.280Z,15.63
2018-05-21T19:50:48.663Z,12.33
2018-05-21T19:53:16.484Z,9.67
2018-05-21T19:55:44.298Z,8.70
2018-05-21T19:58:12.059Z,7.10
2018-05-21T20:00:39.854Z,6.10
2018-05-21T20:03:07.933Z,6.00
2018-05-21T20:05:35.827Z,11.63
2018-05-21T20:08:03.659Z,8.70
2018-05-21T20:10:31.528Z,12.03
2018-05-21T20:12:59.416Z,13.03
2018-05-21T20:15:28.099Z,9.23
2018-05-21T20:17:55.967Z,10.40
2018-05-21T20:20:35.612Z,10.70
2018-05-21T20:23:03.375Z,8.37
2018-05-21T20:25:31.247Z,9.23
2018-05-21T20:27:59.068Z,7.53
2018-05-21T20:30:27.113Z,8.13
2018-05-21T20:32:54.973Z,11.57
2018-05-21T20:35:22.840Z,11.83
2018-05-21T20:37:50.757Z,10.10
2018-05-21T20:40:18.561Z,9.57
2018-05-21T20:42:46.350Z,11.03
2018-05-21T20:45:15.027Z,9.40
2018-05-21T20:47:42.809Z,14.43
2018-05-21T20:50:10.678Z,12.93
2018-05-21T20:52:40.128Z,10.10
2018-05-21T20:55:08.463Z,12.17
2018-05-21T20:57:36.233Z,12.87
2018-05-21T21:00:04.823Z,14.32
2018-05-21T21:02:32.542Z,11.63
2018-05-21T21:05:00.250Z,17.20
2018-05-21T21:07:28.129Z,12.07
2018-05-21T21:09:56.023Z,15.37
2018-05-21T21:12:23.871Z,12.57
2018-05-21T21:14:51.842Z,12.50
2018-05-21T21:17:19.594Z,10.43
2018-05-21T21:19:47.873Z,11.93
2018-05-21T21:22:15.765Z,13.10
2018-05-21T21:24:43.535Z,13.67
2018-05-21T21:27:11.413Z,13.53
2018-05-21T21:29:39.230Z,11.30
2018-05-21T21:32:06.944Z,13.17
2018-05-21T21:34:34.825Z,12.83
2018-05-21T21:37:02.678Z,14.47
2018-05-21T21:39:30.453Z,8.23
2018-05-21T21:41:58.227Z,11.45
2018-05-21T21:44:25.991Z,8.23
2018-05-21T21:46:53.744Z,8.83
2018-05-21T21:49:21.423Z,9.87
2018-05-21T21:51:49.297Z,8.77
2018-05-21T21:54:17.072Z,9.93
2018-05-21T21:56:45.755Z,11.17
2018-05-21T21:59:13.526Z,12.20
2018-05-21T22:01:41.396Z,10.30
2018-05-21T22:04:09.057Z,12.33
2018-05-21T22:06:36.939Z,9.37
2018-05-21T22:09:05.533Z,11.90
2018-05-21T22:11:33.297Z,12.67
2018-05-21T22:14:01.042Z,14.70
2018-05-21T22:16:28.780Z,18.13
2018-05-21T22:18:56.494Z,13.27
2018-05-21T22:21:24.476Z,18.02
2018-05-21T22:23:52.131Z,15.67
2018-05-21T22:26:19.921Z,14.30
2018-05-21T22:28:47.674Z,16.37
2018-05-21T22:31:16.055Z,15.67
2018-05-21T22:33:44.852Z,17.70
2018-05-21T22:36:12.601Z,16.10
2018-05-21T22:38:40.461Z,15.13
2018-05-21T22:41:08.681Z,17.57
2018-05-21T22:43:36.543Z,20.80
2018-05-21T22:46:04.418Z,19.00
2018-05-21T22:48:32.273Z,16.63
2018-05-21T22:50:59.994Z,17.20
2018-05-21T22:53:27.728Z,18.73
2018-05-21T22:55:55.586Z,17.20
2018-05-21T22:58:23.454Z,20.50
2018-05-21T23:00:51.126Z,20.67
2018-05-21T23:03:18.895Z,20.57
2018-05-21T23:05:46.765Z,18.37
2018-05-21T23:08:14.527Z,18.80
2018-05-21T23:10:42.408Z,20.08
2018-05-21T23:13:10.242Z,18.03
2018-05-21T23:15:37.988Z,15.83
2018-05-21T23:18:05.877Z,18.43
2018-05-21T23:20:33.682Z,19.40
2018-05-21T23:23:01.415Z,18.03
2018-05-21T23:25:29.204Z,16.73
2018-05-21T23:27:57.075Z,19.03
2018-05-21T23:30:24.866Z,17.57
2018-05-21T23:32:52.736Z,19.90
2018-05-21T23:35:20.508Z,16.57
2018-05-21T23:37:48.169Z,16.13
2018-05-21T23:40:16.038Z,15.73
2018-05-21T23:42:43.812Z,17.93
2018-05-21T23:45:11.681Z,18.50
2018-05-21T23:47:39.549Z,18.47
2018-05-21T23:50:07.223Z,17.07
2018-05-21T23:52:34.992Z,19.10
2018-05-21T23:55:02.807Z,18.00
2018-05-21T23:57:30.577Z,20.17
2018-05-21T23:59:58.293Z,19.77
